Time;durP1;ratioP1;P1;durP2;ratioP2;P2;SDS_P1;SDS_P2;PMS_P1;PMS_P2;Temp;Humidity;BMP_temperature;BMP_pressure;BME280_temperature;BME280_humidity;BME280_pressure;Samples;Min_cycle;Max_cycle;Signal;HPM_P1;HPM_P2
2022/06/11 00:01:22;;;;;;;6.13;1.80;;;20.10;75.10;;;;;;5048279;28;20660;-84
2022/06/11 00:03:52;;;;;;;1.90;1.70;;;20.10;75.40;;;;;;5043812;28;20229;-84
2022/06/11 00:06:20;;;;;;;1.93;1.53;;;20.00;75.70;;;;;;5042876;28;20206;-84
2022/06/11 00:08:52;;;;;;;2.33;1.53;;;19.90;76.10;;;;;;5049239;28;20714;-83
2022/06/11 00:11:22;;;;;;;3.27;1.50;;;19.90;76.40;;;;;;5046799;28;20279;-84
2022/06/11 00:13:51;;;;;;;2.50;1.43;;;19.80;76.70;;;;;;5058746;28;20230;-83
2022/06/11 00:16:22;;;;;;;2.53;1.70;;;19.70;76.80;;;;;;5043864;28;20209;-83
2022/06/11 00:18:54;;;;;;;2.03;1.83;;;19.70;76.90;;;;;;5035611;28;20232;-83
2022/06/11 00:21:23;;;;;;;3.33;1.90;;;19.70;76.80;;;;;;5033041;28;20210;-83
2022/06/11 00:23:51;;;;;;;5.27;1.97;;;19.60;76.70;;;;;;5042868;28;20635;-84
2022/06/11 00:26:20;;;;;;;3.43;1.90;;;19.70;76.80;;;;;;5044900;28;20202;-83
2022/06/11 00:28:49;;;;;;;1.87;1.70;;;19.60;76.90;;;;;;5045691;28;20201;-84
2022/06/11 00:31:17;;;;;;;3.67;1.80;;;19.70;76.90;;;;;;5061804;28;20243;-84
2022/06/11 00:33:45;;;;;;;6.67;1.93;;;19.60;77.10;;;;;;5063812;28;20205;-84
2022/06/11 00:36:13;;;;;;;1.83;1.50;;;19.60;77.30;;;;;;5047599;28;20208;-83
2022/06/11 00:38:41;;;;;;;2.57;1.60;;;19.60;77.50;;;;;;5059919;28;20224;-83
2022/06/11 00:41:09;;;;;;;2.87;1.63;;;19.50;77.80;;;;;;5046878;28;20283;-84
2022/06/11 00:43:39;;;;;;;5.67;1.60;;;19.50;78.00;;;;;;5071379;28;20289;-84
2022/06/11 00:46:37;;;;;;;3.83;1.97;;;19.50;78.30;;;;;;5040357;28;20211;-84
2022/06/11 00:49:24;;;;;;;4.63;1.60;;;19.40;78.60;;;;;;5054145;28;20306;-84
2022/06/11 00:52:08;;;;;;;3.80;1.97;;;19.30;78.70;;;;;;5058091;28;20232;-84
2022/06/11 00:54:39;;;;;;;2.37;1.80;;;19.30;78.90;;;;;;5056228;28;20209;-84
2022/06/11 00:57:08;;;;;;;3.73;1.50;;;19.20;79.10;;;;;;5059177;28;20337;-84
2022/06/11 00:59:43;;;;;;;3.53;1.87;;;19.20;79.30;;;;;;5057917;28;20607;-84
2022/06/11 01:02:11;;;;;;;6.00;1.73;;;19.20;79.60;;;;;;5054280;28;20196;-83
2022/06/11 01:04:53;;;;;;;3.30;1.90;;;19.10;79.50;;;;;;5056251;28;20267;-84
2022/06/11 01:07:46;;;;;;;4.70;1.67;;;19.10;79.70;;;;;;5063129;28;20201;-84
2022/06/11 01:10:54;;;;;;;3.30;1.67;;;19.10;80.00;;;;;;5057970;28;20228;-84
2022/06/11 01:13:52;;;;;;;2.90;1.97;;;19.10;80.20;;;;;;5045678;28;20213;-84
2022/06/11 01:16:35;;;;;;;2.10;1.90;;;19.00;80.10;;;;;;5056069;28;20614;-84
2022/06/11 01:19:22;;;;;;;3.03;1.53;;;19.00;79.90;;;;;;5058508;28;20220;-83
2022/06/11 01:21:58;;;;;;;3.13;1.80;;;18.90;80.00;;;;;;5058623;28;20213;-81
2022/06/11 01:24:50;;;;;;;2.17;1.60;;;18.90;80.10;;;;;;5056297;28;20211;-81
2022/06/11 01:27:37;;;;;;;2.00;1.80;;;18.90;80.20;;;;;;5044768;28;20208;-84
2022/06/11 01:30:24;;;;;;;2.77;1.67;;;18.90;80.20;;;;;;5043346;28;20219;-84
2022/06/11 01:33:27;;;;;;;9.90;2.23;;;18.80;80.30;;;;;;5061473;28;20208;-84
2022/06/11 01:36:11;;;;;;;1.90;1.70;;;18.80;80.50;;;;;;5051001;28;20598;-84
2022/06/11 01:38:51;;;;;;;5.00;1.90;;;18.80;80.70;;;;;;5059914;28;20235;-83
2022/06/11 01:41:31;;;;;;;2.43;1.87;;;18.80;80.80;;;;;;5061972;28;20210;-83
2022/06/11 01:44:02;;;;;;;1.63;1.53;;;18.80;81.20;;;;;;5061008;28;20307;-83
2022/06/11 01:46:36;;;;;;;5.03;2.00;;;18.80;81.10;;;;;;5060167;28;20203;-83
2022/06/11 01:49:29;;;;;;;1.90;1.70;;;18.80;81.20;;;;;;5060084;28;20664;-84
2022/06/11 01:52:34;;;;;;;4.47;2.47;;;18.80;81.10;;;;;;5052288;28;20600;-83
2022/06/11 01:55:07;;;;;;;5.93;2.10;;;18.70;81.10;;;;;;5059011;28;20276;-84
2022/06/11 01:57:54;;;;;;;3.77;2.30;;;18.70;81.10;;;;;;5064704;28;20209;-83
2022/06/11 02:00:35;;;;;;;6.30;1.70;;;18.70;81.30;;;;;;5013818;28;20687;-83
2022/06/11 02:03:24;;;;;;;5.17;2.43;;;18.70;81.30;;;;;;5050917;28;20192;-84
2022/06/11 02:06:27;;;;;;;2.40;1.87;;;18.60;82.10;;;;;;5048773;28;20223;-83
2022/06/11 02:08:57;;;;;;;5.57;1.90;;;18.60;81.80;;;;;;4974097;28;20297;-84
2022/06/11 02:11:49;;;;;;;5.30;2.67;;;18.60;81.70;;;;;;5041273;28;20216;-83
2022/06/11 02:14:27;;;;;;;3.63;2.00;;;18.60;82.00;;;;;;5062589;28;20534;-84
2022/06/11 02:17:01;;;;;;;3.43;2.03;;;18.60;81.90;;;;;;5060765;28;20249;-84
2022/06/11 02:19:33;;;;;;;4.40;2.17;;;18.50;81.90;;;;;;5048084;28;20226;-84
2022/06/11 02:22:06;;;;;;;3.57;1.83;;;18.50;81.90;;;;;;5053020;28;20206;-84
2022/06/11 02:24:56;;;;;;;5.30;2.03;;;18.50;82.00;;;;;;5058813;28;20595;-84
2022/06/11 02:27:28;;;;;;;3.00;2.03;;;18.50;82.30;;;;;;5051845;28;20223;-84
2022/06/11 02:29:56;;;;;;;3.93;2.37;;;18.50;82.10;;;;;;5042767;28;20219;-83
2022/06/11 02:32:29;;;;;;;2.20;1.57;;;18.50;81.90;;;;;;5051639;28;20207;-84
2022/06/11 02:35:03;;;;;;;5.33;2.00;;;18.50;81.80;;;;;;5057907;28;20671;-81
2022/06/11 02:37:44;;;;;;;5.27;2.07;;;18.40;81.60;;;;;;5053566;28;20199;-81
2022/06/11 02:40:22;;;;;;;2.37;1.97;;;18.50;81.70;;;;;;5058955;28;20648;-81
2022/06/11 02:42:50;;;;;;;2.70;1.77;;;18.40;81.60;;;;;;5055306;28;20685;-81
2022/06/11 02:45:18;;;;;;;5.33;2.33;;;18.50;81.70;;;;;;5056987;28;20203;-81
2022/06/11 02:47:51;;;;;;;5.10;1.73;;;18.50;81.90;;;;;;5057223;28;20261;-81
2022/06/11 02:50:24;;;;;;;2.40;1.77;;;18.50;81.60;;;;;;5053679;28;20236;-81
2022/06/11 02:52:54;;;;;;;2.93;1.70;;;18.40;81.40;;;;;;5027549;28;20211;-81
2022/06/11 02:55:22;;;;;;;2.43;1.80;;;18.50;81.60;;;;;;5070131;28;20214;-81
2022/06/11 02:57:51;;;;;;;3.13;1.73;;;18.40;81.70;;;;;;5056875;28;20208;-81
2022/06/11 03:00:23;;;;;;;5.10;2.07;;;18.50;81.70;;;;;;5052875;28;20674;-81
2022/06/11 03:02:50;;;;;;;3.33;1.70;;;18.50;81.50;;;;;;5054386;28;20200;-81
2022/06/11 03:05:21;;;;;;;5.10;1.73;;;18.50;81.60;;;;;;5049093;28;20200;-81
2022/06/11 03:07:49;;;;;;;3.40;2.07;;;18.50;81.60;;;;;;5039101;28;20203;-81
2022/06/11 03:10:20;;;;;;;5.80;2.27;;;18.50;81.40;;;;;;5058444;28;20230;-81
2022/06/11 03:12:50;;;;;;;5.30;2.00;;;18.50;81.30;;;;;;5038566;28;20192;-81
2022/06/11 03:15:19;;;;;;;2.03;1.90;;;18.40;81.40;;;;;;5057292;28;20294;-81
2022/06/11 03:17:48;;;;;;;2.23;1.77;;;18.40;81.20;;;;;;5058261;28;20200;-82
2022/06/11 03:20:16;;;;;;;2.40;2.20;;;18.40;80.90;;;;;;5053265;28;20223;-81
2022/06/11 03:22:43;;;;;;;2.57;1.60;;;18.40;80.70;;;;;;5050492;28;20191;-81
2022/06/11 03:25:12;;;;;;;4.07;1.83;;;18.30;81.00;;;;;;5052629;28;20212;-81
2022/06/11 03:27:40;;;;;;;2.43;2.03;;;18.30;81.10;;;;;;5037361;28;20207;-81
2022/06/11 03:30:11;;;;;;;4.00;2.33;;;18.30;81.20;;;;;;5057877;28;20261;-83
2022/06/11 03:32:38;;;;;;;5.60;1.70;;;18.30;81.60;;;;;;5056344;28;20236;-84
2022/06/11 03:35:06;;;;;;;6.20;2.33;;;18.30;81.80;;;;;;5058318;28;20721;-84
2022/06/11 03:37:34;;;;;;;5.60;2.33;;;18.30;81.90;;;;;;5059513;28;20204;-84
2022/06/11 03:40:05;;;;;;;6.70;2.60;;;18.30;81.80;;;;;;5056718;28;20230;-84
2022/06/11 03:42:33;;;;;;;7.00;2.20;;;18.30;81.70;;;;;;5057763;28;20251;-84
2022/06/11 03:45:00;;;;;;;4.97;2.13;;;18.20;81.60;;;;;;5069359;28;20203;-84
2022/06/11 03:47:28;;;;;;;3.67;2.10;;;18.20;81.60;;;;;;5061019;28;20215;-84
2022/06/11 03:49:55;;;;;;;4.90;1.77;;;18.20;81.90;;;;;;5060529;28;20257;-84
2022/06/11 03:52:23;;;;;;;7.60;2.60;;;18.20;82.10;;;;;;5061338;28;20348;-84
2022/06/11 03:54:54;;;;;;;6.70;2.77;;;18.20;82.30;;;;;;5043481;28;20207;-84
2022/06/11 03:57:22;;;;;;;4.17;1.90;;;18.20;82.50;;;;;;5078221;28;20199;-84
2022/06/11 03:59:50;;;;;;;4.90;2.30;;;18.20;82.80;;;;;;5079438;28;20617;-81
2022/06/11 04:02:17;;;;;;;4.23;2.13;;;18.20;82.90;;;;;;5079782;28;20203;-81
2022/06/11 04:04:44;;;;;;;3.47;2.60;;;18.20;83.10;;;;;;5078667;28;20196;-81
2022/06/11 04:07:13;;;;;;;3.93;2.10;;;18.20;83.20;;;;;;5055084;28;20239;-81
2022/06/11 04:09:42;;;;;;;3.70;2.00;;;18.20;83.30;;;;;;5078143;28;20260;-82
2022/06/11 04:12:15;;;;;;;3.20;1.93;;;18.20;83.60;;;;;;5060827;28;20211;-81
2022/06/11 04:14:48;;;;;;;5.50;2.40;;;18.30;83.70;;;;;;5052508;28;20225;-81
2022/06/11 04:17:26;;;;;;;4.87;1.90;;;18.30;83.70;;;;;;5061179;28;20635;-81
2022/06/11 04:19:54;;;;;;;5.67;2.13;;;18.30;83.60;;;;;;5060327;28;20216;-81
2022/06/11 04:22:22;;;;;;;3.20;1.93;;;18.30;83.70;;;;;;5069039;28;20204;-81
2022/06/11 04:24:50;;;;;;;2.93;2.60;;;18.40;83.70;;;;;;5067488;28;20203;-82
2022/06/11 04:27:20;;;;;;;5.83;1.83;;;18.40;83.70;;;;;;5064809;28;20209;-82
2022/06/11 04:29:56;;;;;;;6.67;2.00;;;18.50;83.50;;;;;;5082693;28;20214;-81
2022/06/11 04:32:26;;;;;;;7.97;2.50;;;18.60;83.00;;;;;;5064634;28;20195;-82
2022/06/11 04:34:56;;;;;;;4.93;2.43;;;18.70;82.80;;;;;;5058033;28;20223;-82
2022/06/11 04:37:28;;;;;;;6.07;2.40;;;18.80;82.60;;;;;;5043390;28;20197;-81
2022/06/11 04:39:58;;;;;;;3.97;2.47;;;18.80;82.20;;;;;;5064971;28;20263;-82
2022/06/11 04:42:28;;;;;;;3.97;2.30;;;18.90;81.90;;;;;;5041073;28;20698;-82
2022/06/11 04:44:57;;;;;;;9.37;2.60;;;19.00;81.90;;;;;;5063223;28;20200;-81
2022/06/11 04:47:29;;;;;;;2.93;2.37;;;19.10;81.90;;;;;;5060569;28;20201;-82
2022/06/11 04:50:00;;;;;;;3.93;2.33;;;19.20;81.90;;;;;;5063333;28;20207;-81
2022/06/11 04:52:27;;;;;;;4.10;2.43;;;19.30;82.40;;;;;;5061220;28;20204;-82
2022/06/11 04:54:55;;;;;;;4.33;2.20;;;19.40;81.60;;;;;;5063113;28;20513;-84
2022/06/11 04:57:23;;;;;;;7.97;2.10;;;19.50;81.50;;;;;;5062268;28;20412;-84
2022/06/11 04:59:51;;;;;;;3.13;2.17;;;19.60;81.60;;;;;;5063238;28;20215;-84
2022/06/11 05:02:22;;;;;;;5.00;2.57;;;19.70;81.40;;;;;;5063832;28;20586;-84
2022/06/11 05:04:52;;;;;;;3.30;2.63;;;19.80;81.10;;;;;;5063550;28;20192;-84
2022/06/11 05:07:21;;;;;;;4.83;2.73;;;20.00;80.60;;;;;;5078822;28;20216;-84
2022/06/11 05:09:49;;;;;;;4.77;2.90;;;20.20;80.30;;;;;;5077620;28;20595;-84
2022/06/11 05:12:26;;;;;;;3.00;2.13;;;20.40;80.10;;;;;;5046552;28;20211;-84
2022/06/11 05:14:53;;;;;;;4.17;2.70;;;20.50;80.00;;;;;;5062481;28;20227;-84
2022/06/11 05:17:20;;;;;;;4.33;2.60;;;20.90;79.10;;;;;;5080018;28;20205;-84
2022/06/11 05:19:48;;;;;;;7.83;2.90;;;21.20;77.80;;;;;;5045881;28;20229;-84
2022/06/11 05:22:15;;;;;;;4.37;3.00;;;21.60;76.50;;;;;;5056718;28;20208;-84
2022/06/11 05:24:43;;;;;;;5.13;2.67;;;21.80;75.50;;;;;;5060848;28;20277;-84
2022/06/11 05:27:23;;;;;;;3.50;2.57;;;22.00;74.80;;;;;;5063143;28;20197;-84
2022/06/11 05:29:57;;;;;;;4.70;2.70;;;22.20;74.20;;;;;;5062099;28;20209;-85
2022/06/11 05:32:29;;;;;;;3.77;2.90;;;22.20;73.70;;;;;;5079094;28;20210;-84
2022/06/11 05:34:58;;;;;;;7.73;2.97;;;22.30;73.40;;;;;;5038993;28;20291;-85
2022/06/11 05:37:25;;;;;;;4.33;2.80;;;22.30;73.30;;;;;;5058115;28;20209;-84
2022/06/11 05:39:53;;;;;;;6.63;2.87;;;22.30;73.40;;;;;;5077881;28;20238;-84
2022/06/11 05:42:23;;;;;;;6.97;3.07;;;22.40;73.50;;;;;;5062530;28;20711;-84
2022/06/11 05:44:51;;;;;;;3.50;2.83;;;22.50;73.20;;;;;;5069736;28;20277;-84
2022/06/11 05:47:23;;;;;;;7.27;3.37;;;22.60;73.00;;;;;;5039217;28;20194;-84
2022/06/11 05:49:56;;;;;;;5.37;2.77;;;22.70;73.20;;;;;;5070628;28;20221;-84
2022/06/11 05:52:31;;;;;;;4.33;3.10;;;22.80;72.60;;;;;;5061529;28;20266;-83
2022/06/11 05:54:59;;;;;;;5.23;3.10;;;22.80;72.00;;;;;;5059250;28;20229;-83
2022/06/11 05:57:28;;;;;;;6.03;3.60;;;22.90;71.30;;;;;;5060016;28;20206;-83
2022/06/11 06:00:00;;;;;;;5.27;3.43;;;23.00;70.50;;;;;;5062552;28;20271;-84
2022/06/11 06:02:27;;;;;;;6.63;3.90;;;23.10;69.50;;;;;;5063408;28;20204;-83
2022/06/11 06:04:58;;;;;;;9.33;3.77;;;23.10;69.90;;;;;;5063578;28;20205;-83
2022/06/11 06:07:28;;;;;;;9.63;4.07;;;23.30;70.10;;;;;;5079112;28;20208;-84
2022/06/11 06:09:56;;;;;;;5.93;3.50;;;23.40;69.90;;;;;;5042672;28;20213;-83
2022/06/11 06:12:23;;;;;;;7.47;3.37;;;23.50;68.80;;;;;;5060442;28;20206;-83
2022/06/11 06:14:51;;;;;;;6.47;3.00;;;23.50;68.10;;;;;;5044715;28;20201;-83
2022/06/11 06:17:18;;;;;;;6.90;2.83;;;23.60;68.70;;;;;;5062619;28;20209;-83
2022/06/11 06:20:05;;;;;;;10.97;3.33;;;23.70;68.70;;;;;;5061028;28;20225;-83
2022/06/11 06:22:33;;;;;;;5.30;3.10;;;23.90;67.50;;;;;;5076137;28;20638;-83
2022/06/11 06:25:01;;;;;;;5.83;3.33;;;23.90;67.50;;;;;;5061835;28;20205;-83
2022/06/11 06:27:28;;;;;;;6.57;3.63;;;24.10;67.20;;;;;;5068469;28;20232;-83
2022/06/11 06:29:55;;;;;;;5.93;3.83;;;24.20;66.90;;;;;;5061915;28;20237;-84
2022/06/11 06:32:23;;;;;;;7.13;4.50;;;24.40;65.60;;;;;;5081089;28;20604;-84
2022/06/11 06:34:53;;;;;;;6.73;4.17;;;24.50;62.80;;;;;;5062131;28;20209;-83
2022/06/11 06:37:20;;;;;;;9.63;4.50;;;24.60;63.10;;;;;;5060409;28;20516;-83
2022/06/11 06:39:48;;;;;;;6.33;3.70;;;24.70;64.00;;;;;;5060949;28;20271;-83
2022/06/11 06:42:18;;;;;;;7.93;3.70;;;24.80;63.90;;;;;;5044397;28;20221;-84
2022/06/11 06:44:46;;;;;;;5.47;3.07;;;25.00;63.60;;;;;;5047516;28;20625;-83
2022/06/11 06:47:15;;;;;;;8.07;3.83;;;25.20;63.30;;;;;;5040568;28;20207;-83
2022/06/11 06:49:43;;;;;;;10.60;4.00;;;25.40;62.70;;;;;;5057565;28;20331;-84
2022/06/11 06:52:13;;;;;;;4.43;3.77;;;25.60;60.80;;;;;;5079340;28;20532;-83
2022/06/11 06:54:43;;;;;;;11.03;3.90;;;25.70;59.00;;;;;;5073835;28;20293;-84
2022/06/11 06:57:10;;;;;;;4.13;3.30;;;25.80;60.40;;;;;;5073621;28;20203;-83
2022/06/11 06:59:38;;;;;;;5.50;3.37;;;25.90;60.30;;;;;;5054861;28;20265;-83
2022/06/11 07:02:06;;;;;;;7.10;3.03;;;26.00;59.30;;;;;;5077015;28;20209;-85
2022/06/11 07:04:34;;;;;;;5.43;3.13;;;26.10;59.80;;;;;;5073743;28;20209;-84
2022/06/11 07:07:01;;;;;;;5.33;3.20;;;26.20;60.50;;;;;;5078146;28;20219;-83
2022/06/11 07:09:29;;;;;;;5.10;2.50;;;26.40;60.60;;;;;;5060550;28;20205;-83
2022/06/11 07:11:56;;;;;;;2.90;2.57;;;26.50;59.30;;;;;;5077915;28;20202;-83
2022/06/11 07:14:24;;;;;;;5.57;3.07;;;26.60;59.00;;;;;;5062059;28;20568;-85
2022/06/11 07:16:55;;;;;;;4.00;2.97;;;26.80;58.50;;;;;;5057147;28;20686;-82
2022/06/11 07:19:28;;;;;;;10.00;2.87;;;26.90;58.60;;;;;;5073408;28;20287;-84
2022/06/11 07:22:05;;;;;;;4.07;2.80;;;27.10;57.20;;;;;;5054436;28;20201;-84
2022/06/11 07:24:37;;;;;;;5.10;2.40;;;27.20;57.80;;;;;;5066040;28;20224;-84
2022/06/11 07:27:14;;;;;;;3.83;2.47;;;27.40;58.00;;;;;;5062117;28;20210;-84
2022/06/11 07:29:49;;;;;;;7.47;3.00;;;27.60;57.90;;;;;;5076381;28;20224;-84
2022/06/11 07:32:26;;;;;;;9.20;2.97;;;27.70;55.10;;;;;;5077872;28;20204;-84
2022/06/11 07:34:54;;;;;;;3.50;2.40;;;27.80;55.70;;;;;;5057849;28;20216;-84
2022/06/11 07:37:22;;;;;;;4.73;2.83;;;27.90;54.80;;;;;;5060965;28;20205;-84
2022/06/11 07:39:52;;;;;;;7.70;2.70;;;28.00;54.60;;;;;;5057592;28;20217;-84
2022/06/11 07:42:19;;;;;;;1.80;1.40;;;28.10;54.20;;;;;;5052699;28;20246;-83
2022/06/11 07:44:46;;;;;;;4.53;1.70;;;28.00;53.20;;;;;;5038001;28;20202;-84
2022/06/11 07:47:13;;;;;;;2.47;1.73;;;28.00;55.00;;;;;;5038722;28;20673;-84
2022/06/11 07:49:41;;;;;;;5.30;2.30;;;28.10;54.60;;;;;;5030440;28;20555;-84
2022/06/11 07:52:09;;;;;;;2.80;1.80;;;28.20;54.40;;;;;;5066542;28;20198;-84
2022/06/11 07:54:37;;;;;;;2.67;2.13;;;28.40;54.80;;;;;;5059532;28;20202;-84
2022/06/11 07:57:05;;;;;;;3.37;1.90;;;28.60;53.30;;;;;;5078569;28;20210;-84
2022/06/11 07:59:36;;;;;;;2.77;1.70;;;28.70;53.80;;;;;;5072442;28;20297;-84
2022/06/11 08:02:03;;;;;;;4.37;2.13;;;28.90;52.80;;;;;;5073682;28;20235;-84
2022/06/11 08:04:31;;;;;;;4.73;2.20;;;28.90;53.10;;;;;;5072570;28;20186;-84
2022/06/11 08:06:59;;;;;;;2.13;1.73;;;29.00;52.40;;;;;;5074340;28;20288;-84
2022/06/11 08:09:26;;;;;;;6.97;2.30;;;29.00;51.20;;;;;;5046549;28;20194;-84
2022/06/11 08:11:53;;;;;;;4.00;2.03;;;28.90;51.40;;;;;;5077980;28;20259;-84
2022/06/11 08:14:21;;;;;;;4.10;1.57;;;28.80;51.40;;;;;;5062720;28;20216;-84
2022/06/11 08:16:48;;;;;;;5.80;2.00;;;28.80;52.60;;;;;;5064048;28;20193;-84
2022/06/11 08:19:15;;;;;;;5.70;1.80;;;28.90;52.80;;;;;;5063791;28;20260;-84
2022/06/11 08:21:45;;;;;;;1.80;1.50;;;29.10;52.70;;;;;;5061808;28;20228;-85
2022/06/11 08:24:13;;;;;;;2.47;1.73;;;29.30;52.40;;;;;;5062345;28;20206;-84
2022/06/11 08:26:40;;;;;;;2.47;1.40;;;29.50;50.50;;;;;;5078219;28;20257;-85
2022/06/11 08:29:08;;;;;;;1.40;1.30;;;29.70;48.10;;;;;;5047302;28;20212;-82
2022/06/11 08:31:35;;;;;;;4.93;1.73;;;29.70;48.60;;;;;;5044259;28;20305;-85
2022/06/11 08:34:04;;;;;;;1.40;1.30;;;29.70;47.40;;;;;;5052145;28;20210;-83
2022/06/11 08:36:31;;;;;;;2.30;1.30;;;29.80;48.00;;;;;;5062118;28;20259;-85
2022/06/11 08:38:59;;;;;;;1.97;1.80;;;29.90;45.00;;;;;;5041751;28;20217;-83
2022/06/11 08:41:35;;;;;;;3.13;2.20;;;30.00;44.10;;;;;;5055498;28;20248;-86
2022/06/11 08:44:09;;;;;;;1.93;1.50;;;30.00;45.70;;;;;;5029128;28;20235;-86
2022/06/11 08:46:41;;;;;;;2.37;1.70;;;30.10;46.00;;;;;;5057866;28;20202;-83
2022/06/11 08:49:32;;;;;;;2.73;2.13;;;30.30;45.10;;;;;;5057780;28;20198;-86
2022/06/11 08:52:10;;;;;;;1.70;1.50;;;30.30;44.90;;;;;;5056452;28;20202;-83
2022/06/11 08:54:42;;;;;;;1.67;1.30;;;30.40;43.80;;;;;;5058957;28;20611;-86
2022/06/11 08:57:29;;;;;;;1.57;1.47;;;30.30;43.40;;;;;;5041964;28;20214;-87
2022/06/11 09:00:00;;;;;;;1.87;1.60;;;30.20;45.60;;;;;;5046263;28;20627;-87
2022/06/11 09:03:02;;;;;;;7.90;2.67;;;30.20;46.20;;;;;;5021877;28;20207;-86
2022/06/11 09:05:40;;;;;;;1.73;1.33;;;30.40;46.70;;;;;;5039356;28;20205;-86
2022/06/11 09:08:41;;;;;;;2.57;2.30;;;30.70;45.00;;;;;;5043652;28;20252;-86
2022/06/11 09:11:46;;;;;;;1.37;1.27;;;30.90;45.20;;;;;;5061360;28;20210;-85
2022/06/11 09:14:40;;;;;;;1.80;1.63;;;31.10;44.40;;;;;;5059774;28;20206;-84
2022/06/11 09:17:38;;;;;;;20.53;5.00;;;31.30;43.40;;;;;;5061748;28;20533;-86
2022/06/11 09:20:21;;;;;;;6.37;1.40;;;31.40;43.80;;;;;;5045034;28;20236;-87
2022/06/11 09:23:01;;;;;;;1.40;1.30;;;31.50;42.80;;;;;;5037523;28;20513;-86
2022/06/11 09:25:31;;;;;;;8.83;2.07;;;31.60;42.60;;;;;;5051210;28;20203;-84
2022/06/11 09:28:13;;;;;;;3.60;1.40;;;31.60;40.50;;;;;;5060155;28;20199;-85
2022/06/11 09:30:46;;;;;;;5.07;1.57;;;31.50;40.70;;;;;;5039785;28;20198;-86
2022/06/11 09:33:37;;;;;;;1.30;1.23;;;31.40;43.00;;;;;;5044944;28;20205;-86
2022/06/11 09:36:28;;;;;;;1.80;1.33;;;31.60;43.30;;;;;;5037911;28;20206;-84
2022/06/11 09:38:55;;;;;;;4.37;1.33;;;31.70;42.10;;;;;;5038579;28;20207;-84
2022/06/11 09:41:52;;;;;;;1.37;1.20;;;31.80;40.90;;;;;;5043258;28;20234;-85
2022/06/11 09:44:38;;;;;;;1.50;1.13;;;31.90;40.70;;;;;;5031171;28;20203;-84
2022/06/11 09:47:38;;;;;;;1.63;1.30;;;31.90;40.80;;;;;;5051877;28;20527;-85
2022/06/11 09:50:24;;;;;;;2.97;1.30;;;32.00;39.20;;;;;;5050912;28;20531;-85
2022/06/11 09:52:57;;;;;;;3.33;1.23;;;32.10;39.30;;;;;;5042639;28;20264;-84
2022/06/11 09:55:38;;;;;;;2.60;1.30;;;32.10;39.40;;;;;;5042051;28;20203;-85
2022/06/11 09:58:27;;;;;;;3.90;1.37;;;32.10;38.50;;;;;;5038948;28;20646;-83
2022/06/11 10:01:00;;;;;;;1.93;1.40;;;32.00;38.90;;;;;;5034547;28;20568;-82
2022/06/11 10:03:42;;;;;;;2.30;1.50;;;31.70;39.90;;;;;;5054931;28;20206;-85
2022/06/11 10:06:14;;;;;;;1.83;1.43;;;31.50;41.40;;;;;;5040614;28;20271;-83
2022/06/11 10:08:57;;;;;;;8.07;1.60;;;31.40;41.60;;;;;;5051953;28;20210;-84
2022/06/11 10:11:52;;;;;;;1.50;1.40;;;31.40;41.80;;;;;;5043187;28;20233;-85
2022/06/11 10:14:28;;;;;;;2.43;1.40;;;31.40;42.10;;;;;;5051128;28;20553;-85
2022/06/11 10:17:18;;;;;;;1.77;1.60;;;31.60;43.10;;;;;;5036354;28;20203;-82
2022/06/11 10:20:04;;;;;;;1.50;1.40;;;31.80;42.60;;;;;;5051147;28;20705;-83
2022/06/11 10:22:36;;;;;;;1.43;1.33;;;31.90;41.10;;;;;;5057166;28;20206;-85
2022/06/11 10:25:25;;;;;;;1.83;1.30;;;31.90;40.40;;;;;;5036784;28;20222;-85
2022/06/11 10:28:34;;;;;;;1.57;1.47;;;31.80;40.10;;;;;;5022119;28;20542;-84
2022/06/11 10:31:14;;;;;;;1.30;1.20;;;31.70;41.70;;;;;;5055060;28;20244;-85
2022/06/11 10:33:48;;;;;;;1.40;1.30;;;31.70;42.50;;;;;;5024920;28;20646;-84
2022/06/11 10:36:21;;;;;;;2.17;1.40;;;31.90;43.00;;;;;;5038889;28;20217;-83
2022/06/11 10:39:05;;;;;;;2.73;1.10;;;32.10;43.00;;;;;;5034743;28;20213;-83
2022/06/11 10:42:00;;;;;;;4.10;1.60;;;32.40;42.00;;;;;;5034891;28;20237;-85
2022/06/11 10:44:56;;;;;;;2.87;1.20;;;32.60;40.80;;;;;;5051170;28;20222;-85
2022/06/11 10:47:26;;;;;;;1.37;1.27;;;32.70;38.90;;;;;;5037927;28;20226;-82
2022/06/11 10:50:11;;;;;;;1.27;1.27;;;32.70;37.60;;;;;;5030409;28;20203;-85
2022/06/11 10:52:57;;;;;;;2.43;1.20;;;32.50;38.50;;;;;;5036031;28;20191;-85
2022/06/11 10:55:49;;;;;;;2.63;1.10;;;32.50;39.30;;;;;;5044114;28;20277;-84
2022/06/11 10:58:28;;;;;;;2.07;1.30;;;32.60;39.90;;;;;;5044828;28;20229;-85
2022/06/11 11:01:19;;;;;;;2.93;1.50;;;32.70;37.30;;;;;;5041806;28;20222;-85
2022/06/11 11:03:58;;;;;;;2.63;0.93;;;32.80;38.90;;;;;;5043409;28;20210;-86
2022/06/11 11:06:34;;;;;;;1.40;1.30;;;32.80;37.30;;;;;;5024680;28;20211;-85
2022/06/11 11:09:12;;;;;;;4.00;1.10;;;32.70;38.20;;;;;;5037220;28;20194;-82
2022/06/11 11:11:50;;;;;;;1.30;1.20;;;32.60;37.70;;;;;;5019449;28;20214;-84
2022/06/11 11:14:28;;;;;;;1.80;1.27;;;32.40;37.70;;;;;;5021571;28;20225;-83
2022/06/11 11:17:03;;;;;;;1.33;1.23;;;32.40;39.60;;;;;;5020643;28;20217;-81
2022/06/11 11:19:33;;;;;;;1.23;1.13;;;32.40;38.30;;;;;;5051270;28;20540;-81
2022/06/11 11:22:04;;;;;;;3.90;1.40;;;32.50;36.90;;;;;;5042558;28;20327;-82
2022/06/11 11:24:41;;;;;;;2.03;1.20;;;32.40;38.50;;;;;;5038320;28;20202;-83
2022/06/11 11:27:41;;;;;;;2.47;1.30;;;32.50;37.60;;;;;;5021912;28;20198;-82
2022/06/11 11:30:15;;;;;;;2.10;1.10;;;32.60;38.60;;;;;;5052491;28;20244;-82
2022/06/11 11:32:47;;;;;;;1.10;1.00;;;32.70;37.10;;;;;;5033724;28;20195;-83
2022/06/11 11:35:26;;;;;;;2.10;1.60;;;32.90;37.40;;;;;;5024129;28;20210;-81
2022/06/11 11:37:57;;;;;;;1.40;1.23;;;33.00;38.10;;;;;;5026595;28;20288;-80
2022/06/11 11:40:27;;;;;;;1.90;1.20;;;33.20;38.20;;;;;;5036635;28;20199;-82
2022/06/11 11:43:03;;;;;;;2.50;1.07;;;33.40;38.30;;;;;;5064362;28;20731;-83
2022/06/11 11:45:44;;;;;;;1.57;1.20;;;33.30;38.00;;;;;;5046947;28;20198;-80
2022/06/11 11:48:32;;;;;;;2.33;1.30;;;33.20;36.10;;;;;;5063364;28;20231;-81
2022/06/11 11:51:23;;;;;;;1.10;1.07;;;33.00;35.90;;;;;;5068282;28;20308;-80
2022/06/11 11:54:03;;;;;;;1.63;1.20;;;32.80;36.30;;;;;;5048058;28;20225;-81
2022/06/11 11:56:34;;;;;;;1.43;1.20;;;32.60;36.70;;;;;;5063594;28;20231;-83
2022/06/11 11:59:18;;;;;;;2.33;1.20;;;32.60;37.90;;;;;;5049644;28;20771;-82
2022/06/11 12:01:48;;;;;;;1.40;1.07;;;32.60;37.60;;;;;;5053930;28;20297;-83
2022/06/11 12:04:29;;;;;;;2.40;1.10;;;32.60;36.40;;;;;;5060953;28;20206;-81
2022/06/11 12:07:02;;;;;;;2.47;1.10;;;32.80;38.00;;;;;;5040317;28;20705;-82
2022/06/11 12:09:48;;;;;;;1.00;1.00;;;32.90;37.30;;;;;;5074714;28;20645;-83
2022/06/11 12:12:28;;;;;;;1.00;1.00;;;33.10;36.50;;;;;;5043265;28;20223;-83
2022/06/11 12:14:59;;;;;;;1.40;1.30;;;33.20;38.30;;;;;;5027708;28;20222;-82
2022/06/11 12:17:37;;;;;;;1.10;1.07;;;33.30;37.80;;;;;;5075612;28;20288;-82
2022/06/11 12:20:30;;;;;;;4.67;1.20;;;33.40;37.30;;;;;;5046016;28;20209;-82
2022/06/11 12:23:20;;;;;;;1.57;1.30;;;33.50;37.50;;;;;;5065025;28;20259;-80
2022/06/11 12:25:55;;;;;;;5.63;1.10;;;33.60;36.80;;;;;;5056230;28;20203;-80
2022/06/11 12:28:32;;;;;;;1.73;1.10;;;33.50;35.80;;;;;;5059771;28;20225;-82
2022/06/11 12:30:59;;;;;;;1.40;1.30;;;33.30;36.60;;;;;;5057266;28;20293;-80
2022/06/11 12:33:27;;;;;;;16.37;2.90;;;33.30;36.50;;;;;;5058109;28;20237;-83
2022/06/11 12:36:15;;;;;;;16.13;2.20;;;33.20;36.80;;;;;;5057784;28;20244;-81
2022/06/11 12:39:11;;;;;;;14.00;1.67;;;33.30;37.50;;;;;;5038097;28;20201;-82
2022/06/11 12:42:13;;;;;;;2.40;1.10;;;33.30;36.30;;;;;;5038946;28;20313;-81
2022/06/11 12:44:50;;;;;;;2.73;1.10;;;33.40;36.30;;;;;;5037629;28;20193;-81
2022/06/11 12:47:41;;;;;;;1.87;1.20;;;33.30;36.00;;;;;;5054745;28;20560;-81
2022/06/11 12:50:45;;;;;;;1.30;1.20;;;33.20;35.90;;;;;;5059335;28;20209;-82
2022/06/11 12:53:43;;;;;;;1.30;1.20;;;33.20;38.00;;;;;;5041065;28;20198;-81
2022/06/11 12:56:36;;;;;;;1.30;1.20;;;33.20;37.40;;;;;;5053187;28;20210;-83
2022/06/11 12:59:09;;;;;;;3.00;1.10;;;33.40;36.80;;;;;;5043676;28;20217;-82
2022/06/11 13:02:02;;;;;;;1.60;1.20;;;33.50;37.70;;;;;;5046870;28;20325;-81
2022/06/11 13:04:35;;;;;;;2.93;1.10;;;33.60;36.20;;;;;;5054969;28;20198;-83
2022/06/11 13:07:18;;;;;;;1.10;1.00;;;33.60;36.80;;;;;;5059065;28;20216;-83
2022/06/11 13:10:20;;;;;;;1.17;1.00;;;33.60;35.10;;;;;;5047568;28;20206;-82
2022/06/11 13:13:23;;;;;;;12.23;2.40;;;33.50;36.40;;;;;;5058625;28;20209;-82
2022/06/11 13:15:56;;;;;;;2.60;1.10;;;33.50;37.10;;;;;;5038794;28;20601;-82
2022/06/11 13:18:56;;;;;;;1.30;1.20;;;33.50;36.70;;;;;;5078186;28;20197;-83
2022/06/11 13:21:39;;;;;;;2.07;1.33;;;33.50;36.70;;;;;;5075414;28;20304;-82
2022/06/11 13:24:31;;;;;;;3.90;0.90;;;33.50;35.80;;;;;;5072304;28;20508;-82
2022/06/11 13:27:22;;;;;;;1.33;1.00;;;33.40;37.10;;;;;;5043848;28;20205;-81
2022/06/11 13:30:08;;;;;;;1.57;1.10;;;33.40;36.30;;;;;;5061785;28;20197;-82